sensor_id;sensor_type;location;lat;lon;timestamp;P1;durP1;ratioP1;P2;durP2;ratioP2
27558;SDS011;15002;52.028;5.670;2023-01-13T00:00:06;15.50;;;2.13;;
27558;SDS011;15002;52.028;5.670;2023-01-13T00:02:33;17.20;;;2.55;;
27558;SDS011;15002;52.028;5.670;2023-01-13T00:04:58;17.65;;;2.60;;
27558;SDS011;15002;52.028;5.670;2023-01-13T00:07:24;18.42;;;3.30;;
27558;SDS011;15002;52.028;5.670;2023-01-13T00:09:50;22.67;;;3.20;;
27558;SDS011;15002;52.028;5.670;2023-01-13T00:12:15;16.65;;;2.38;;
27558;SDS011;15002;52.028;5.670;2023-01-13T00:14:41;14.10;;;2.45;;
27558;SDS011;15002;52.028;5.670;2023-01-13T00:17:06;20.90;;;2.30;;
27558;SDS011;15002;52.028;5.670;2023-01-13T00:19:32;14.50;;;2.20;;
27558;SDS011;15002;52.028;5.670;2023-01-13T00:21:58;22.75;;;4.30;;
27558;SDS011;15002;52.028;5.670;2023-01-13T00:24:23;19.38;;;2.70;;
27558;SDS011;15002;52.028;5.670;2023-01-13T00:26:49;20.38;;;3.05;;
27558;SDS011;15002;52.028;5.670;2023-01-13T00:29:16;17.70;;;2.65;;
27558;SDS011;15002;52.028;5.670;2023-01-13T00:31:42;16.40;;;2.85;;
27558;SDS011;15002;52.028;5.670;2023-01-13T00:34:07;23.42;;;3.17;;
27558;SDS011;15002;52.028;5.670;2023-01-13T00:36:33;22.25;;;3.30;;
27558;SDS011;15002;52.028;5.670;2023-01-13T00:38:59;22.65;;;3.55;;
27558;SDS011;15002;52.028;5.670;2023-01-13T00:41:25;19.75;;;3.65;;
27558;SDS011;15002;52.028;5.670;2023-01-13T00:43:51;27.60;;;3.17;;
27558;SDS011;15002;52.028;5.670;2023-01-13T00:46:18;23.17;;;3.05;;
27558;SDS011;15002;52.028;5.670;2023-01-13T00:48:45;17.98;;;3.72;;
27558;SDS011;15002;52.028;5.670;2023-01-13T00:53:45;19.88;;;3.22;;
27558;SDS011;15002;52.028;5.670;2023-01-13T00:56:17;21.15;;;3.28;;
27558;SDS011;15002;52.028;5.670;2023-01-13T00:58:44;19.70;;;2.72;;
27558;SDS011;15002;52.028;5.670;2023-01-13T01:01:12;20.70;;;2.80;;
27558;SDS011;15002;52.028;5.670;2023-01-13T01:03:39;25.52;;;2.95;;
27558;SDS011;15002;52.028;5.670;2023-01-13T01:06:10;24.52;;;3.20;;
27558;SDS011;15002;52.028;5.670;2023-01-13T01:08:37;27.30;;;3.75;;
27558;SDS011;15002;52.028;5.670;2023-01-13T01:11:04;31.35;;;3.90;;
27558;SDS011;15002;52.028;5.670;2023-01-13T01:13:34;23.55;;;3.05;;
27558;SDS011;15002;52.028;5.670;2023-01-13T01:16:02;22.70;;;2.90;;
27558;SDS011;15002;52.028;5.670;2023-01-13T01:18:36;22.60;;;3.42;;
27558;SDS011;15002;52.028;5.670;2023-01-13T01:21:03;18.50;;;2.88;;
27558;SDS011;15002;52.028;5.670;2023-01-13T01:23:30;27.65;;;3.47;;
27558;SDS011;15002;52.028;5.670;2023-01-13T01:26:04;22.08;;;3.72;;
27558;SDS011;15002;52.028;5.670;2023-01-13T01:28:40;24.25;;;3.53;;
27558;SDS011;15002;52.028;5.670;2023-01-13T01:31:09;26.23;;;3.92;;
27558;SDS011;15002;52.028;5.670;2023-01-13T01:33:46;16.52;;;2.72;;
27558;SDS011;15002;52.028;5.670;2023-01-13T01:36:12;24.02;;;3.88;;
27558;SDS011;15002;52.028;5.670;2023-01-13T01:38:39;20.58;;;3.55;;
27558;SDS011;15002;52.028;5.670;2023-01-13T01:41:05;20.67;;;3.88;;
27558;SDS011;15002;52.028;5.670;2023-01-13T01:46:38;28.20;;;3.42;;
27558;SDS011;15002;52.028;5.670;2023-01-13T01:49:20;18.02;;;3.00;;
27558;SDS011;15002;52.028;5.670;2023-01-13T01:51:54;25.05;;;3.17;;
27558;SDS011;15002;52.028;5.670;2023-01-13T01:54:50;21.35;;;3.90;;
27558;SDS011;15002;52.028;5.670;2023-01-13T02:00:10;27.35;;;3.65;;
27558;SDS011;15002;52.028;5.670;2023-01-13T02:02:37;21.40;;;2.85;;
27558;SDS011;15002;52.028;5.670;2023-01-13T02:05:04;28.70;;;3.58;;
27558;SDS011;15002;52.028;5.670;2023-01-13T02:07:30;23.70;;;3.83;;
27558;SDS011;15002;52.028;5.670;2023-01-13T02:09:58;30.75;;;3.70;;
27558;SDS011;15002;52.028;5.670;2023-01-13T02:12:27;35.45;;;4.20;;
27558;SDS011;15002;52.028;5.670;2023-01-13T02:14:54;19.40;;;3.67;;
27558;SDS011;15002;52.028;5.670;2023-01-13T02:17:26;21.08;;;3.50;;
27558;SDS011;15002;52.028;5.670;2023-01-13T02:20:34;23.80;;;3.85;;
27558;SDS011;15002;52.028;5.670;2023-01-13T02:32:32;24.45;;;2.88;;
27558;SDS011;15002;52.028;5.670;2023-01-13T02:35:13;25.63;;;4.50;;
27558;SDS011;15002;52.028;5.670;2023-01-13T02:37:43;26.73;;;3.13;;
27558;SDS011;15002;52.028;5.670;2023-01-13T02:40:11;22.40;;;3.80;;
27558;SDS011;15002;52.028;5.670;2023-01-13T02:42:47;29.30;;;3.53;;
27558;SDS011;15002;52.028;5.670;2023-01-13T02:46:12;27.00;;;3.95;;
27558;SDS011;15002;52.028;5.670;2023-01-13T02:48:44;23.83;;;3.53;;
27558;SDS011;15002;52.028;5.670;2023-01-13T02:51:14;25.27;;;3.75;;
27558;SDS011;15002;52.028;5.670;2023-01-13T02:56:13;26.33;;;3.95;;
27558;SDS011;15002;52.028;5.670;2023-01-13T02:58:40;25.90;;;3.42;;
27558;SDS011;15002;52.028;5.670;2023-01-13T03:01:09;24.33;;;3.58;;
27558;SDS011;15002;52.028;5.670;2023-01-13T03:03:35;31.17;;;4.32;;
27558;SDS011;15002;52.028;5.670;2023-01-13T03:11:27;28.08;;;3.65;;
27558;SDS011;15002;52.028;5.670;2023-01-13T03:17:20;24.55;;;3.63;;
27558;SDS011;15002;52.028;5.670;2023-01-13T03:20:21;31.45;;;3.88;;
27558;SDS011;15002;52.028;5.670;2023-01-13T03:26:01;24.95;;;3.53;;
27558;SDS011;15002;52.028;5.670;2023-01-13T03:28:39;29.83;;;3.70;;
27558;SDS011;15002;52.028;5.670;2023-01-13T03:31:13;18.98;;;3.30;;
27558;SDS011;15002;52.028;5.670;2023-01-13T03:33:53;20.45;;;3.33;;
27558;SDS011;15002;52.028;5.670;2023-01-13T03:36:41;24.27;;;3.40;;
27558;SDS011;15002;52.028;5.670;2023-01-13T03:39:11;24.45;;;3.90;;
27558;SDS011;15002;52.028;5.670;2023-01-13T03:41:43;20.10;;;3.33;;
27558;SDS011;15002;52.028;5.670;2023-01-13T03:44:16;27.10;;;3.60;;
27558;SDS011;15002;52.028;5.670;2023-01-13T03:49:17;16.55;;;3.35;;
27558;SDS011;15002;52.028;5.670;2023-01-13T03:51:48;26.17;;;3.73;;
27558;SDS011;15002;52.028;5.670;2023-01-13T03:54:20;20.60;;;3.30;;
27558;SDS011;15002;52.028;5.670;2023-01-13T03:56:50;24.08;;;3.40;;
27558;SDS011;15002;52.028;5.670;2023-01-13T03:59:21;18.98;;;3.08;;
27558;SDS011;15002;52.028;5.670;2023-01-13T04:05:00;19.70;;;3.70;;
27558;SDS011;15002;52.028;5.670;2023-01-13T04:10:09;18.98;;;2.22;;
27558;SDS011;15002;52.028;5.670;2023-01-13T04:12:41;23.13;;;3.22;;
27558;SDS011;15002;52.028;5.670;2023-01-13T04:15:35;18.33;;;2.75;;
27558;SDS011;15002;52.028;5.670;2023-01-13T04:20:50;16.42;;;2.97;;
27558;SDS011;15002;52.028;5.670;2023-01-13T04:23:17;21.48;;;2.38;;
27558;SDS011;15002;52.028;5.670;2023-01-13T04:25:45;16.85;;;2.45;;
27558;SDS011;15002;52.028;5.670;2023-01-13T04:28:11;19.48;;;2.13;;
27558;SDS011;15002;52.028;5.670;2023-01-13T04:30:38;24.27;;;3.33;;
27558;SDS011;15002;52.028;5.670;2023-01-13T04:33:03;19.67;;;2.65;;
27558;SDS011;15002;52.028;5.670;2023-01-13T04:35:30;14.38;;;1.70;;
27558;SDS011;15002;52.028;5.670;2023-01-13T04:37:58;10.68;;;1.85;;
27558;SDS011;15002;52.028;5.670;2023-01-13T04:40:25;8.48;;;1.77;;
27558;SDS011;15002;52.028;5.670;2023-01-13T04:42:51;13.00;;;1.70;;
27558;SDS011;15002;52.028;5.670;2023-01-13T04:45:16;9.98;;;1.33;;
27558;SDS011;15002;52.028;5.670;2023-01-13T04:47:42;14.73;;;2.08;;
27558;SDS011;15002;52.028;5.670;2023-01-13T04:50:08;7.80;;;1.20;;
27558;SDS011;15002;52.028;5.670;2023-01-13T04:52:35;7.07;;;1.45;;
27558;SDS011;15002;52.028;5.670;2023-01-13T04:55:00;9.50;;;1.35;;
27558;SDS011;15002;52.028;5.670;2023-01-13T04:57:26;9.82;;;1.08;;
27558;SDS011;15002;52.028;5.670;2023-01-13T04:59:52;4.47;;;1.02;;
27558;SDS011;15002;52.028;5.670;2023-01-13T05:02:18;5.97;;;0.93;;
27558;SDS011;15002;52.028;5.670;2023-01-13T05:04:47;8.88;;;1.20;;
27558;SDS011;15002;52.028;5.670;2023-01-13T05:07:13;6.55;;;0.90;;
27558;SDS011;15002;52.028;5.670;2023-01-13T05:09:40;6.47;;;1.70;;
27558;SDS011;15002;52.028;5.670;2023-01-13T05:12:06;7.00;;;1.40;;
27558;SDS011;15002;52.028;5.670;2023-01-13T05:14:52;13.88;;;1.73;;
27558;SDS011;15002;52.028;5.670;2023-01-13T05:17:36;8.30;;;1.33;;
27558;SDS011;15002;52.028;5.670;2023-01-13T05:20:03;10.05;;;1.10;;
27558;SDS011;15002;52.028;5.670;2023-01-13T05:22:29;11.00;;;1.38;;
27558;SDS011;15002;52.028;5.670;2023-01-13T05:25:13;11.65;;;1.60;;
27558;SDS011;15002;52.028;5.670;2023-01-13T05:27:55;9.32;;;1.30;;
27558;SDS011;15002;52.028;5.670;2023-01-13T05:30:23;13.98;;;2.90;;
27558;SDS011;15002;52.028;5.670;2023-01-13T05:32:51;7.63;;;1.38;;
27558;SDS011;15002;52.028;5.670;2023-01-13T05:35:22;9.02;;;1.13;;
27558;SDS011;15002;52.028;5.670;2023-01-13T05:37:48;11.30;;;1.88;;
27558;SDS011;15002;52.028;5.670;2023-01-13T05:40:19;9.70;;;2.22;;
27558;SDS011;15002;52.028;5.670;2023-01-13T05:43:08;13.07;;;2.00;;
27558;SDS011;15002;52.028;5.670;2023-01-13T05:46:00;8.68;;;1.85;;
27558;SDS011;15002;52.028;5.670;2023-01-13T05:48:38;16.75;;;1.55;;
27558;SDS011;15002;52.028;5.670;2023-01-13T05:51:06;13.57;;;2.25;;
27558;SDS011;15002;52.028;5.670;2023-01-13T05:53:34;14.73;;;2.17;;
27558;SDS011;15002;52.028;5.670;2023-01-13T05:56:02;10.65;;;1.85;;
27558;SDS011;15002;52.028;5.670;2023-01-13T05:58:28;12.52;;;1.63;;
27558;SDS011;15002;52.028;5.670;2023-01-13T06:01:01;13.35;;;2.10;;
27558;SDS011;15002;52.028;5.670;2023-01-13T06:03:29;13.63;;;2.00;;
27558;SDS011;15002;52.028;5.670;2023-01-13T06:05:55;14.05;;;1.92;;
27558;SDS011;15002;52.028;5.670;2023-01-13T06:08:23;10.00;;;1.95;;
27558;SDS011;15002;52.028;5.670;2023-01-13T06:10:49;11.07;;;1.65;;
27558;SDS011;15002;52.028;5.670;2023-01-13T06:13:15;13.38;;;1.70;;
27558;SDS011;15002;52.028;5.670;2023-01-13T06:15:41;15.75;;;1.67;;
27558;SDS011;15002;52.028;5.670;2023-01-13T06:18:07;11.18;;;1.70;;
27558;SDS011;15002;52.028;5.670;2023-01-13T06:20:33;16.27;;;2.30;;
27558;SDS011;15002;52.028;5.670;2023-01-13T06:22:58;15.15;;;1.67;;
27558;SDS011;15002;52.028;5.670;2023-01-13T06:25:28;14.43;;;2.15;;
27558;SDS011;15002;52.028;5.670;2023-01-13T06:28:00;10.25;;;1.77;;
27558;SDS011;15002;52.028;5.670;2023-01-13T06:30:28;14.10;;;1.98;;
27558;SDS011;15002;52.028;5.670;2023-01-13T06:32:57;14.40;;;2.70;;
27558;SDS011;15002;52.028;5.670;2023-01-13T06:35:29;12.82;;;2.30;;
27558;SDS011;15002;52.028;5.670;2023-01-13T06:37:58;10.20;;;1.85;;
27558;SDS011;15002;52.028;5.670;2023-01-13T06:40:27;13.05;;;2.42;;
27558;SDS011;15002;52.028;5.670;2023-01-13T06:42:53;16.52;;;2.30;;
27558;SDS011;15002;52.028;5.670;2023-01-13T06:45:39;11.88;;;2.03;;
27558;SDS011;15002;52.028;5.670;2023-01-13T06:48:13;14.38;;;2.15;;
27558;SDS011;15002;52.028;5.670;2023-01-13T06:50:39;14.80;;;2.25;;
27558;SDS011;15002;52.028;5.670;2023-01-13T06:53:06;11.10;;;2.20;;
27558;SDS011;15002;52.028;5.670;2023-01-13T06:55:32;15.60;;;2.88;;
27558;SDS011;15002;52.028;5.670;2023-01-13T06:57:59;18.13;;;2.25;;
27558;SDS011;15002;52.028;5.670;2023-01-13T07:00:25;18.20;;;3.20;;
27558;SDS011;15002;52.028;5.670;2023-01-13T07:02:51;12.43;;;2.47;;
27558;SDS011;15002;52.028;5.670;2023-01-13T07:05:17;14.27;;;2.50;;
27558;SDS011;15002;52.028;5.670;2023-01-13T07:07:44;15.75;;;1.98;;
27558;SDS011;15002;52.028;5.670;2023-01-13T07:10:11;16.05;;;2.30;;
27558;SDS011;15002;52.028;5.670;2023-01-13T07:12:38;19.30;;;2.35;;
27558;SDS011;15002;52.028;5.670;2023-01-13T07:15:24;15.45;;;1.95;;
27558;SDS011;15002;52.028;5.670;2023-01-13T07:17:50;12.95;;;2.47;;
27558;SDS011;15002;52.028;5.670;2023-01-13T07:20:15;18.92;;;2.25;;
27558;SDS011;15002;52.028;5.670;2023-01-13T07:22:42;16.90;;;2.50;;
27558;SDS011;15002;52.028;5.670;2023-01-13T07:25:08;17.42;;;1.95;;
27558;SDS011;15002;52.028;5.670;2023-01-13T07:27:34;17.92;;;2.88;;
27558;SDS011;15002;52.028;5.670;2023-01-13T07:30:00;14.85;;;1.98;;
27558;SDS011;15002;52.028;5.670;2023-01-13T07:32:25;24.92;;;3.03;;
27558;SDS011;15002;52.028;5.670;2023-01-13T07:34:51;17.85;;;2.13;;
27558;SDS011;15002;52.028;5.670;2023-01-13T07:37:17;9.60;;;1.85;;
27558;SDS011;15002;52.028;5.670;2023-01-13T07:39:42;12.35;;;2.80;;
27558;SDS011;15002;52.028;5.670;2023-01-13T07:42:09;15.13;;;1.75;;
27558;SDS011;15002;52.028;5.670;2023-01-13T07:44:53;16.17;;;2.67;;
27558;SDS011;15002;52.028;5.670;2023-01-13T07:47:19;12.98;;;2.17;;
27558;SDS011;15002;52.028;5.670;2023-01-13T07:49:47;16.75;;;2.53;;
27558;SDS011;15002;52.028;5.670;2023-01-13T07:52:13;19.55;;;2.95;;
27558;SDS011;15002;52.028;5.670;2023-01-13T07:54:39;18.60;;;3.28;;
27558;SDS011;15002;52.028;5.670;2023-01-13T07:57:04;14.32;;;2.42;;
27558;SDS011;15002;52.028;5.670;2023-01-13T07:59:30;18.25;;;3.40;;
27558;SDS011;15002;52.028;5.670;2023-01-13T08:01:56;18.85;;;2.88;;
27558;SDS011;15002;52.028;5.670;2023-01-13T08:04:21;16.40;;;2.50;;
27558;SDS011;15002;52.028;5.670;2023-01-13T08:06:47;13.48;;;2.08;;
27558;SDS011;15002;52.028;5.670;2023-01-13T08:09:13;14.10;;;2.65;;
27558;SDS011;15002;52.028;5.670;2023-01-13T08:11:39;20.33;;;2.40;;
27558;SDS011;15002;52.028;5.670;2023-01-13T08:14:04;19.35;;;2.25;;
27558;SDS011;15002;52.028;5.670;2023-01-13T08:16:31;14.38;;;2.45;;
27558;SDS011;15002;52.028;5.670;2023-01-13T08:18:59;19.10;;;2.65;;
27558;SDS011;15002;52.028;5.670;2023-01-13T08:21:24;15.35;;;2.22;;
27558;SDS011;15002;52.028;5.670;2023-01-13T08:23:50;16.33;;;3.10;;
27558;SDS011;15002;52.028;5.670;2023-01-13T08:26:16;22.90;;;2.88;;
27558;SDS011;15002;52.028;5.670;2023-01-13T08:28:42;18.20;;;2.30;;
27558;SDS011;15002;52.028;5.670;2023-01-13T08:31:09;20.17;;;2.80;;
27558;SDS011;15002;52.028;5.670;2023-01-13T08:33:37;19.05;;;2.70;;
27558;SDS011;15002;52.028;5.670;2023-01-13T08:36:04;24.88;;;3.13;;
27558;SDS011;15002;52.028;5.670;2023-01-13T08:38:31;13.35;;;3.08;;
27558;SDS011;15002;52.028;5.670;2023-01-13T08:40:58;20.00;;;3.53;;
27558;SDS011;15002;52.028;5.670;2023-01-13T08:43:24;18.42;;;3.15;;
27558;SDS011;15002;52.028;5.670;2023-01-13T08:45:57;19.08;;;3.83;;
27558;SDS011;15002;52.028;5.670;2023-01-13T08:48:24;19.08;;;2.50;;
27558;SDS011;15002;52.028;5.670;2023-01-13T08:50:50;13.63;;;1.88;;
27558;SDS011;15002;52.028;5.670;2023-01-13T08:53:17;18.35;;;2.45;;
27558;SDS011;15002;52.028;5.670;2023-01-13T08:55:43;18.83;;;2.40;;
27558;SDS011;15002;52.028;5.670;2023-01-13T08:58:08;18.40;;;2.72;;
27558;SDS011;15002;52.028;5.670;2023-01-13T09:00:34;15.75;;;2.42;;
27558;SDS011;15002;52.028;5.670;2023-01-13T09:03:00;19.08;;;2.67;;
27558;SDS011;15002;52.028;5.670;2023-01-13T09:05:25;15.45;;;2.88;;
27558;SDS011;15002;52.028;5.670;2023-01-13T09:07:51;16.35;;;2.45;;
27558;SDS011;15002;52.028;5.670;2023-01-13T09:10:16;21.42;;;3.25;;
27558;SDS011;15002;52.028;5.670;2023-01-13T09:12:42;16.25;;;2.55;;
27558;SDS011;15002;52.028;5.670;2023-01-13T09:15:26;18.40;;;2.88;;
27558;SDS011;15002;52.028;5.670;2023-01-13T09:17:52;17.33;;;3.03;;
27558;SDS011;15002;52.028;5.670;2023-01-13T09:20:18;12.00;;;2.70;;
27558;SDS011;15002;52.028;5.670;2023-01-13T09:22:43;19.33;;;2.72;;
27558;SDS011;15002;52.028;5.670;2023-01-13T09:25:09;19.88;;;2.33;;
27558;SDS011;15002;52.028;5.670;2023-01-13T09:27:36;24.55;;;2.90;;
27558;SDS011;15002;52.028;5.670;2023-01-13T09:30:02;11.60;;;2.42;;
27558;SDS011;15002;52.028;5.670;2023-01-13T09:32:29;17.85;;;2.58;;
27558;SDS011;15002;52.028;5.670;2023-01-13T09:34:54;17.95;;;2.75;;
27558;SDS011;15002;52.028;5.670;2023-01-13T09:37:30;28.95;;;3.38;;
27558;SDS011;15002;52.028;5.670;2023-01-13T09:40:01;18.05;;;2.88;;
27558;SDS011;15002;52.028;5.670;2023-01-13T09:45:45;17.08;;;2.47;;
27558;SDS011;15002;52.028;5.670;2023-01-13T09:48:25;22.42;;;2.97;;
27558;SDS011;15002;52.028;5.670;2023-01-13T09:51:38;15.40;;;2.58;;
27558;SDS011;15002;52.028;5.670;2023-01-13T09:54:09;20.25;;;2.75;;
27558;SDS011;15002;52.028;5.670;2023-01-13T09:56:41;18.55;;;2.80;;
27558;SDS011;15002;52.028;5.670;2023-01-13T09:59:10;18.23;;;2.67;;
27558;SDS011;15002;52.028;5.670;2023-01-13T10:04:21;20.15;;;3.08;;
27558;SDS011;15002;52.028;5.670;2023-01-13T10:06:47;22.33;;;2.72;;
27558;SDS011;15002;52.028;5.670;2023-01-13T10:09:27;22.02;;;2.95;;
27558;SDS011;15002;52.028;5.670;2023-01-13T10:11:58;17.00;;;2.92;;
27558;SDS011;15002;52.028;5.670;2023-01-13T10:17:40;20.85;;;2.95;;
27558;SDS011;15002;52.028;5.670;2023-01-13T10:20:21;19.02;;;3.13;;
27558;SDS011;15002;52.028;5.670;2023-01-13T10:27:54;17.05;;;3.10;;
27558;SDS011;15002;52.028;5.670;2023-01-13T10:30:27;17.25;;;2.63;;
27558;SDS011;15002;52.028;5.670;2023-01-13T10:32:59;15.82;;;3.85;;
27558;SDS011;15002;52.028;5.670;2023-01-13T10:38:23;14.95;;;2.40;;
27558;SDS011;15002;52.028;5.670;2023-01-13T10:43:16;21.02;;;3.30;;
27558;SDS011;15002;52.028;5.670;2023-01-13T10:45:49;16.00;;;3.33;;
27558;SDS011;15002;52.028;5.670;2023-01-13T10:48:19;18.65;;;2.55;;
27558;SDS011;15002;52.028;5.670;2023-01-13T10:50:45;17.60;;;2.55;;
27558;SDS011;15002;52.028;5.670;2023-01-13T10:53:17;18.90;;;3.28;;
27558;SDS011;15002;52.028;5.670;2023-01-13T10:55:59;17.10;;;3.30;;
27558;SDS011;15002;52.028;5.670;2023-01-13T10:58:27;15.52;;;2.65;;
27558;SDS011;15002;52.028;5.670;2023-01-13T11:01:00;21.67;;;3.83;;
27558;SDS011;15002;52.028;5.670;2023-01-13T11:03:38;25.33;;;2.72;;
27558;SDS011;15002;52.028;5.670;2023-01-13T11:06:07;21.40;;;2.60;;
27558;SDS011;15002;52.028;5.670;2023-01-13T11:08:43;16.13;;;3.20;;
27558;SDS011;15002;52.028;5.670;2023-01-13T11:13:55;23.83;;;2.45;;
27558;SDS011;15002;52.028;5.670;2023-01-13T11:16:45;21.50;;;2.85;;
27558;SDS011;15002;52.028;5.670;2023-01-13T11:19:15;17.25;;;2.60;;
27558;SDS011;15002;52.028;5.670;2023-01-13T11:21:59;18.02;;;2.17;;
27558;SDS011;15002;52.028;5.670;2023-01-13T11:30:04;14.80;;;2.45;;
27558;SDS011;15002;52.028;5.670;2023-01-13T11:35:30;14.50;;;2.08;;
27558;SDS011;15002;52.028;5.670;2023-01-13T11:38:07;17.00;;;2.45;;
27558;SDS011;15002;52.028;5.670;2023-01-13T11:40:44;15.60;;;2.25;;
27558;SDS011;15002;52.028;5.670;2023-01-13T11:45:51;21.35;;;1.92;;
27558;SDS011;15002;52.028;5.670;2023-01-13T11:48:21;13.38;;;2.53;;
27558;SDS011;15002;52.028;5.670;2023-01-13T12:04:47;19.90;;;3.45;;
27558;SDS011;15002;52.028;5.670;2023-01-13T12:07:34;15.93;;;2.60;;
27558;SDS011;15002;52.028;5.670;2023-01-13T12:12:42;18.48;;;4.15;;
27558;SDS011;15002;52.028;5.670;2023-01-13T12:23:11;18.40;;;2.55;;
27558;SDS011;15002;52.028;5.670;2023-01-13T12:25:46;13.63;;;2.33;;
27558;SDS011;15002;52.028;5.670;2023-01-13T12:28:18;12.13;;;1.95;;
27558;SDS011;15002;52.028;5.670;2023-01-13T12:30:54;21.58;;;2.15;;
27558;SDS011;15002;52.028;5.670;2023-01-13T12:33:27;16.20;;;2.70;;
27558;SDS011;15002;52.028;5.670;2023-01-13T12:38:51;15.05;;;2.00;;
27558;SDS011;15002;52.028;5.670;2023-01-13T12:41:31;21.10;;;2.60;;
27558;SDS011;15002;52.028;5.670;2023-01-13T12:43:58;15.67;;;2.83;;
27558;SDS011;15002;52.028;5.670;2023-01-13T12:46:48;18.55;;;3.03;;
27558;SDS011;15002;52.028;5.670;2023-01-13T12:54:30;22.15;;;3.95;;
27558;SDS011;15002;52.028;5.670;2023-01-13T12:59:40;15.77;;;2.08;;
27558;SDS011;15002;52.028;5.670;2023-01-13T13:04:45;16.05;;;1.95;;
27558;SDS011;15002;52.028;5.670;2023-01-13T13:07:17;8.55;;;1.88;;
27558;SDS011;15002;52.028;5.670;2023-01-13T13:10:30;17.30;;;1.98;;
27558;SDS011;15002;52.028;5.670;2023-01-13T13:12:53;14.05;;;2.15;;
27558;SDS011;15002;52.028;5.670;2023-01-13T13:15:42;12.18;;;2.55;;
27558;SDS011;15002;52.028;5.670;2023-01-13T13:21:07;11.77;;;2.05;;
27558;SDS011;15002;52.028;5.670;2023-01-13T13:31:29;16.15;;;2.08;;
27558;SDS011;15002;52.028;5.670;2023-01-13T13:34:47;13.50;;;2.10;;
27558;SDS011;15002;52.028;5.670;2023-01-13T13:37:05;14.40;;;2.20;;
27558;SDS011;15002;52.028;5.670;2023-01-13T13:39:50;12.32;;;1.70;;
27558;SDS011;15002;52.028;5.670;2023-01-13T13:42:47;13.77;;;3.17;;
27558;SDS011;15002;52.028;5.670;2023-01-13T13:45:48;13.57;;;1.55;;
27558;SDS011;15002;52.028;5.670;2023-01-13T13:48:35;8.10;;;1.63;;
27558;SDS011;15002;52.028;5.670;2023-01-13T13:51:06;9.00;;;1.60;;
27558;SDS011;15002;52.028;5.670;2023-01-13T13:53:50;12.02;;;1.88;;
27558;SDS011;15002;52.028;5.670;2023-01-13T13:56:17;12.60;;;1.50;;
27558;SDS011;15002;52.028;5.670;2023-01-13T13:58:46;9.60;;;1.30;;
27558;SDS011;15002;52.028;5.670;2023-01-13T14:06:56;13.32;;;2.20;;
27558;SDS011;15002;52.028;5.670;2023-01-13T14:09:24;7.88;;;1.98;;
27558;SDS011;15002;52.028;5.670;2023-01-13T14:11:56;17.58;;;2.30;;
27558;SDS011;15002;52.028;5.670;2023-01-13T14:14:26;10.38;;;1.83;;
27558;SDS011;15002;52.028;5.670;2023-01-13T14:16:53;11.63;;;2.00;;
27558;SDS011;15002;52.028;5.670;2023-01-13T14:22:00;8.18;;;1.80;;
27558;SDS011;15002;52.028;5.670;2023-01-13T14:24:29;18.58;;;2.28;;
27558;SDS011;15002;52.028;5.670;2023-01-13T14:27:17;9.43;;;1.70;;
27558;SDS011;15002;52.028;5.670;2023-01-13T14:29:42;11.43;;;2.38;;
27558;SDS011;15002;52.028;5.670;2023-01-13T14:32:11;9.70;;;1.63;;
27558;SDS011;15002;52.028;5.670;2023-01-13T14:34:41;17.05;;;2.83;;
27558;SDS011;15002;52.028;5.670;2023-01-13T14:40:02;9.05;;;1.67;;
27558;SDS011;15002;52.028;5.670;2023-01-13T14:42:28;8.00;;;1.48;;
27558;SDS011;15002;52.028;5.670;2023-01-13T14:44:55;12.65;;;2.20;;
27558;SDS011;15002;52.028;5.670;2023-01-13T14:47:28;12.25;;;2.30;;
27558;SDS011;15002;52.028;5.670;2023-01-13T14:49:58;12.90;;;1.90;;
27558;SDS011;15002;52.028;5.670;2023-01-13T14:52:33;10.10;;;2.17;;
27558;SDS011;15002;52.028;5.670;2023-01-13T14:57:30;12.80;;;2.05;;
27558;SDS011;15002;52.028;5.670;2023-01-13T15:00:04;11.73;;;2.13;;
27558;SDS011;15002;52.028;5.670;2023-01-13T15:07:56;11.50;;;2.08;;
27558;SDS011;15002;52.028;5.670;2023-01-13T15:10:47;12.00;;;1.63;;
27558;SDS011;15002;52.028;5.670;2023-01-13T15:16:12;10.68;;;2.20;;
27558;SDS011;15002;52.028;5.670;2023-01-13T15:18:46;16.88;;;2.50;;
27558;SDS011;15002;52.028;5.670;2023-01-13T15:21:12;12.20;;;2.03;;
27558;SDS011;15002;52.028;5.670;2023-01-13T15:23:39;11.70;;;1.77;;
27558;SDS011;15002;52.028;5.670;2023-01-13T15:26:16;14.38;;;2.22;;
27558;SDS011;15002;52.028;5.670;2023-01-13T15:28:43;17.48;;;2.40;;
27558;SDS011;15002;52.028;5.670;2023-01-13T15:31:08;14.00;;;2.20;;
27558;SDS011;15002;52.028;5.670;2023-01-13T15:33:34;12.90;;;3.72;;
27558;SDS011;15002;52.028;5.670;2023-01-13T15:36:00;14.30;;;2.22;;
27558;SDS011;15002;52.028;5.670;2023-01-13T15:38:26;13.82;;;2.35;;
27558;SDS011;15002;52.028;5.670;2023-01-13T15:40:51;15.25;;;2.50;;
27558;SDS011;15002;52.028;5.670;2023-01-13T15:43:19;12.98;;;2.05;;
27558;SDS011;15002;52.028;5.670;2023-01-13T15:46:14;9.88;;;1.70;;
27558;SDS011;15002;52.028;5.670;2023-01-13T15:49:01;11.45;;;2.05;;
27558;SDS011;15002;52.028;5.670;2023-01-13T15:51:34;15.27;;;2.70;;
27558;SDS011;15002;52.028;5.670;2023-01-13T15:54:04;13.70;;;1.73;;
27558;SDS011;15002;52.028;5.670;2023-01-13T15:56:30;8.40;;;1.80;;
27558;SDS011;15002;52.028;5.670;2023-01-13T15:59:00;14.98;;;2.17;;
27558;SDS011;15002;52.028;5.670;2023-01-13T16:01:26;15.23;;;2.60;;
27558;SDS011;15002;52.028;5.670;2023-01-13T16:03:51;11.98;;;1.83;;
27558;SDS011;15002;52.028;5.670;2023-01-13T16:06:18;14.73;;;2.60;;
27558;SDS011;15002;52.028;5.670;2023-01-13T16:08:46;12.25;;;1.75;;
27558;SDS011;15002;52.028;5.670;2023-01-13T16:11:12;12.73;;;2.28;;
27558;SDS011;15002;52.028;5.670;2023-01-13T16:13:38;10.48;;;2.22;;
27558;SDS011;15002;52.028;5.670;2023-01-13T16:16:09;10.40;;;2.25;;
27558;SDS011;15002;52.028;5.670;2023-01-13T16:18:49;8.23;;;2.25;;
27558;SDS011;15002;52.028;5.670;2023-01-13T16:21:15;16.02;;;2.35;;
27558;SDS011;15002;52.028;5.670;2023-01-13T16:23:43;12.43;;;2.30;;
27558;SDS011;15002;52.028;5.670;2023-01-13T16:28:44;13.82;;;2.13;;
27558;SDS011;15002;52.028;5.670;2023-01-13T16:31:14;11.48;;;2.03;;
27558;SDS011;15002;52.028;5.670;2023-01-13T16:33:42;13.18;;;2.55;;
27558;SDS011;15002;52.028;5.670;2023-01-13T16:36:15;14.50;;;2.67;;
27558;SDS011;15002;52.028;5.670;2023-01-13T16:38:42;16.00;;;2.95;;
27558;SDS011;15002;52.028;5.670;2023-01-13T16:41:08;10.45;;;2.50;;
27558;SDS011;15002;52.028;5.670;2023-01-13T16:43:34;11.38;;;2.35;;
27558;SDS011;15002;52.028;5.670;2023-01-13T16:46:00;13.57;;;2.40;;
27558;SDS011;15002;52.028;5.670;2023-01-13T16:48:26;18.60;;;3.15;;
27558;SDS011;15002;52.028;5.670;2023-01-13T16:50:51;17.20;;;2.80;;
27558;SDS011;15002;52.028;5.670;2023-01-13T16:53:17;11.15;;;2.40;;
27558;SDS011;15002;52.028;5.670;2023-01-13T16:55:42;14.15;;;2.40;;
27558;SDS011;15002;52.028;5.670;2023-01-13T16:58:11;14.05;;;2.38;;
27558;SDS011;15002;52.028;5.670;2023-01-13T17:00:44;15.75;;;2.60;;
27558;SDS011;15002;52.028;5.670;2023-01-13T17:03:15;18.92;;;2.83;;
27558;SDS011;15002;52.028;5.670;2023-01-13T17:05:41;16.88;;;3.30;;
27558;SDS011;15002;52.028;5.670;2023-01-13T17:08:12;17.27;;;2.80;;
27558;SDS011;15002;52.028;5.670;2023-01-13T17:10:43;20.30;;;2.95;;
27558;SDS011;15002;52.028;5.670;2023-01-13T17:13:09;18.83;;;2.92;;
27558;SDS011;15002;52.028;5.670;2023-01-13T17:15:35;11.60;;;2.88;;
27558;SDS011;15002;52.028;5.670;2023-01-13T17:18:01;16.98;;;3.10;;
27558;SDS011;15002;52.028;5.670;2023-01-13T17:20:27;16.52;;;2.88;;
27558;SDS011;15002;52.028;5.670;2023-01-13T17:22:53;12.50;;;3.05;;
27558;SDS011;15002;52.028;5.670;2023-01-13T17:25:19;10.48;;;2.40;;